createdAt,value
2022-09-13T00:01:45.770Z,88.10
2022-09-13T00:04:12.624Z,88.23
2022-09-13T00:06:39.405Z,88.34
2022-09-13T00:09:06.352Z,89.27
2022-09-13T00:11:33.455Z,88.90
2022-09-13T00:14:00.369Z,88.20
2022-09-13T00:16:29.651Z,87.95
2022-09-13T00:18:58.013Z,88.52
2022-09-13T00:21:25.276Z,87.62
2022-09-13T00:23:54.082Z,87.57
2022-09-13T00:26:27.098Z,87.98
2022-09-13T00:28:56.574Z,88.14
2022-09-13T00:31:26.582Z,87.90
2022-09-13T00:33:53.973Z,88.28
2022-09-13T00:36:21.155Z,87.36
2022-09-13T00:38:47.923Z,87.84
2022-09-13T00:41:17.543Z,87.68
2022-09-13T00:43:50.864Z,87.92
2022-09-13T00:46:47.758Z,87.56
2022-09-13T00:49:37.249Z,87.29
2022-09-13T00:52:10.903Z,87.05
2022-09-13T00:54:45.594Z,87.61
2022-09-13T00:57:14.843Z,87.27
2022-09-13T00:59:50.394Z,87.94
2022-09-13T01:02:17.298Z,87.68
2022-09-13T01:04:44.931Z,87.00
2022-09-13T01:07:15.279Z,85.82
2022-09-13T01:09:46.014Z,85.70
2022-09-13T01:12:32.109Z,86.03
2022-09-13T01:15:01.323Z,86.28
2022-09-13T01:17:30.676Z,85.98
2022-09-13T01:19:58.560Z,86.02
2022-09-13T01:22:50.230Z,87.36
2022-09-13T01:25:16.923Z,87.87
2022-09-13T01:28:01.993Z,88.02
2022-09-13T01:30:38.587Z,87.37
2022-09-13T01:34:07.222Z,87.48
2022-09-13T01:37:50.533Z,88.26
2022-09-13T01:40:38.530Z,89.57
2022-09-13T01:43:46.698Z,89.10
2022-09-13T01:46:23.042Z,89.20
2022-09-13T01:49:15.569Z,89.07
2022-09-13T01:52:08.777Z,89.54
2022-09-13T01:54:50.611Z,89.71
2022-09-13T01:57:48.740Z,88.92
2022-09-13T02:00:18.788Z,88.07
2022-09-13T02:03:11.287Z,87.65
2022-09-13T02:06:08.932Z,88.40
2022-09-13T02:08:47.487Z,88.66
2022-09-13T02:11:17.561Z,88.06
2022-09-13T02:13:54.847Z,88.04
2022-09-13T02:16:32.228Z,88.35
2022-09-13T02:19:13.694Z,88.44
2022-09-13T02:21:45.274Z,87.23
2022-09-13T02:24:34.498Z,86.57
2022-09-13T02:27:32.745Z,85.84
2022-09-13T02:30:05.784Z,85.65
2022-09-13T02:32:40.758Z,86.08
2022-09-13T02:35:14.951Z,86.24
2022-09-13T02:37:47.338Z,88.00
2022-09-13T02:40:22.885Z,88.11
2022-09-13T02:43:05.071Z,87.68
2022-09-13T02:46:21.143Z,87.38
2022-09-13T02:49:08.671Z,87.61
2022-09-13T02:51:57.221Z,87.68
2022-09-13T02:54:53.249Z,87.55
2022-09-13T02:57:33.226Z,87.58
2022-09-13T03:00:00.597Z,87.66
2022-09-13T03:02:34.295Z,87.73
2022-09-13T03:05:02.619Z,87.40
2022-09-13T03:07:29.711Z,86.79
2022-09-13T03:10:04.602Z,87.75
2022-09-13T03:13:01.926Z,87.66
2022-09-13T03:15:53.574Z,87.68
2022-09-13T03:18:49.441Z,86.88
2022-09-13T03:21:33.062Z,86.71
2022-09-13T03:24:18.447Z,87.10
2022-09-13T03:27:15.236Z,86.54
2022-09-13T03:30:20.510Z,86.55
2022-09-13T03:32:58.276Z,85.61
2022-09-13T03:35:41.965Z,85.65
2022-09-13T03:38:21.701Z,86.37
2022-09-13T03:41:07.579Z,85.78
2022-09-13T03:43:43.443Z,85.83
2022-09-13T03:46:20.391Z,86.28
2022-09-13T03:48:48.025Z,86.36
2022-09-13T03:51:15.465Z,86.35
2022-09-13T03:53:52.067Z,87.27
2022-09-13T03:56:21.109Z,87.71
2022-09-13T03:58:49.334Z,88.14
2022-09-13T04:01:22.751Z,87.65
2022-09-13T04:03:53.423Z,88.12
2022-09-13T04:06:23.319Z,88.18
2022-09-13T04:08:50.263Z,88.06
2022-09-13T04:11:17.094Z,88.31
2022-09-13T04:13:43.983Z,88.19
2022-09-13T04:16:10.766Z,88.87
2022-09-13T04:18:37.556Z,88.82
2022-09-13T04:21:04.860Z,88.23
2022-09-13T04:23:31.666Z,87.51
2022-09-13T04:26:05.992Z,87.40
2022-09-13T04:28:32.768Z,88.44
2022-09-13T04:30:59.513Z,88.19
2022-09-13T04:33:26.212Z,88.20
2022-09-13T04:35:59.833Z,87.83
2022-09-13T04:38:27.329Z,87.72
2022-09-13T04:40:57.276Z,87.05
2022-09-13T04:43:24.931Z,87.03
2022-09-13T04:45:51.983Z,87.62
2022-09-13T04:48:18.929Z,87.63
2022-09-13T04:50:45.733Z,88.10
2022-09-13T04:53:12.549Z,86.81
2022-09-13T04:55:39.301Z,86.79
2022-09-13T04:58:06.367Z,86.84
2022-09-13T05:00:34.080Z,86.66
2022-09-13T05:03:01.016Z,87.03
2022-09-13T05:05:29.016Z,86.65
2022-09-13T05:07:56.226Z,86.33
2022-09-13T05:10:23.149Z,85.38
2022-09-13T05:12:49.926Z,85.38
2022-09-13T05:15:16.839Z,85.05
2022-09-13T05:17:43.564Z,85.61
2022-09-13T05:20:11.206Z,85.73
2022-09-13T05:22:38.070Z,86.65
2022-09-13T05:25:05.638Z,86.68
2022-09-13T05:27:32.334Z,87.17
2022-09-13T05:29:59.053Z,87.63
2022-09-13T05:32:25.804Z,88.16
2022-09-13T05:34:52.542Z,88.13
2022-09-13T05:37:19.343Z,89.13
2022-09-13T05:40:07.812Z,89.47
2022-09-13T05:42:32.826Z,88.65
2022-09-13T05:44:59.575Z,87.89
2022-09-13T05:47:26.339Z,88.03
2022-09-13T05:50:09.848Z,87.73
2022-09-13T05:52:37.759Z,88.05
2022-09-13T05:55:04.882Z,87.54
2022-09-13T05:57:32.004Z,88.08
2022-09-13T05:59:58.794Z,88.24
2022-09-13T06:02:25.552Z,88.18
2022-09-13T06:04:52.411Z,88.57
2022-09-13T06:07:19.132Z,88.79
2022-09-13T06:09:45.898Z,88.63
2022-09-13T06:12:12.590Z,88.30
2022-09-13T06:14:39.322Z,88.06
2022-09-13T06:17:06.552Z,88.24
2022-09-13T06:19:33.360Z,88.37
2022-09-13T06:22:00.215Z,88.39
2022-09-13T06:24:26.912Z,88.27
2022-09-13T06:26:54.311Z,88.16
2022-09-13T06:29:21.047Z,88.38
2022-09-13T06:31:47.825Z,88.42
2022-09-13T06:34:16.204Z,88.64
2022-09-13T06:36:43.310Z,88.54
2022-09-13T06:39:10.134Z,88.55
2022-09-13T06:41:37.581Z,88.91
2022-09-13T06:44:04.558Z,89.12
2022-09-13T06:46:34.798Z,88.82
2022-09-13T06:49:05.261Z,88.48
2022-09-13T06:51:33.724Z,88.57
2022-09-13T06:54:01.405Z,88.63
2022-09-13T06:56:36.226Z,88.95
2022-09-13T06:59:07.166Z,89.21
2022-09-13T07:01:38.557Z,89.57
2022-09-13T07:04:12.340Z,90.03
2022-09-13T07:06:42.738Z,90.23
2022-09-13T07:09:13.798Z,90.85
2022-09-13T07:11:42.318Z,91.87
2022-09-13T07:14:09.477Z,93.38
2022-09-13T07:16:38.579Z,93.25
2022-09-13T07:19:11.272Z,93.31
2022-09-13T07:21:38.084Z,92.72
2022-09-13T07:24:05.381Z,91.47
2022-09-13T07:26:32.276Z,91.19
2022-09-13T07:29:03.157Z,92.56
2022-09-13T07:31:37.287Z,92.44
2022-09-13T07:34:12.750Z,92.65
2022-09-13T07:36:39.460Z,92.83
2022-09-13T07:39:08.237Z,93.44
2022-09-13T07:41:37.332Z,92.90
2022-09-13T07:44:06.492Z,92.15
2022-09-13T07:46:41.545Z,91.98
2022-09-13T07:49:09.866Z,92.63
2022-09-13T07:51:39.717Z,92.20
2022-09-13T07:54:15.521Z,91.96
2022-09-13T07:56:42.904Z,91.70
2022-09-13T07:59:17.136Z,91.98
2022-09-13T08:01:47.194Z,91.63
2022-09-13T08:04:18.658Z,91.97
2022-09-13T08:06:46.859Z,91.80
2022-09-13T08:09:14.193Z,91.47
2022-09-13T08:11:51.901Z,90.80
2022-09-13T08:14:20.786Z,90.53
2022-09-13T08:16:48.111Z,90.74
2022-09-13T08:19:17.755Z,90.50
2022-09-13T08:21:45.437Z,90.07
2022-09-13T08:24:24.309Z,88.46
2022-09-13T08:26:52.190Z,86.63
2022-09-13T08:29:19.352Z,86.14
2022-09-13T08:31:46.087Z,85.39
2022-09-13T08:34:15.700Z,85.26
2022-09-13T08:36:43.342Z,82.34
2022-09-13T08:39:13.920Z,80.68
2022-09-13T08:41:42.178Z,78.91
2022-09-13T08:44:36.309Z,76.70
2022-09-13T08:47:23.948Z,77.25
2022-09-13T08:50:07.201Z,77.34
2022-09-13T08:52:36.763Z,74.37
2022-09-13T08:55:20.334Z,73.12
2022-09-13T08:57:54.994Z,74.41
2022-09-13T09:00:40.862Z,72.35
2022-09-13T09:03:42.196Z,71.51
2022-09-13T09:06:16.986Z,69.97
2022-09-13T09:08:58.113Z,69.48
2022-09-13T09:11:42.189Z,68.38
2022-09-13T09:14:49.065Z,67.61
2022-09-13T09:17:25.473Z,67.09
2022-09-13T09:20:09.715Z,65.89
2022-09-13T09:22:36.641Z,65.56
2022-09-13T09:25:05.040Z,63.03
2022-09-13T09:27:32.373Z,61.55
2022-09-13T09:29:59.382Z,61.45
2022-09-13T09:32:44.262Z,59.92
2022-09-13T09:35:28.280Z,55.42
2022-09-13T09:38:27.442Z,55.34
2022-09-13T09:40:54.227Z,52.72
2022-09-13T09:43:33.511Z,49.24
2022-09-13T09:46:03.445Z,47.99
2022-09-13T09:48:42.408Z,47.05
2022-09-13T09:51:11.866Z,47.58
2022-09-13T09:53:45.874Z,47.46
2022-09-13T09:56:23.976Z,47.62
2022-09-13T09:58:53.298Z,47.08
2022-09-13T10:01:34.158Z,44.92
2022-09-13T10:04:12.892Z,43.40
2022-09-13T10:06:42.044Z,44.07
2022-09-13T10:09:14.577Z,40.22
2022-09-13T10:11:54.033Z,40.64
2022-09-13T10:14:46.270Z,41.10
2022-09-13T10:17:29.096Z,40.80
2022-09-13T10:19:59.785Z,41.64
2022-09-13T10:22:28.435Z,41.29
2022-09-13T10:24:56.105Z,42.41
2022-09-13T10:27:43.122Z,41.03
2022-09-13T10:30:47.328Z,40.88
2022-09-13T10:33:37.490Z,36.13
2022-09-13T10:36:41.592Z,37.59
2022-09-13T10:39:18.158Z,38.08
2022-09-13T10:41:52.191Z,35.25
2022-09-13T10:44:47.551Z,35.52
2022-09-13T10:47:24.597Z,35.26
2022-09-13T10:49:54.277Z,35.35
2022-09-13T10:52:35.050Z,35.19
2022-09-13T10:55:19.966Z,32.80
2022-09-13T10:57:53.006Z,31.74
2022-09-13T11:00:24.730Z,32.27
2022-09-13T11:03:32.384Z,32.43
2022-09-13T11:06:24.602Z,31.35
2022-09-13T11:09:17.869Z,31.32
2022-09-13T11:12:06.233Z,31.68
2022-09-13T11:14:58.283Z,31.67
2022-09-13T11:17:50.634Z,31.85
2022-09-13T11:20:45.651Z,30.21
2022-09-13T11:23:35.548Z,31.47
2022-09-13T11:26:30.298Z,31.33
2022-09-13T11:29:30.491Z,30.17
2022-09-13T11:32:27.905Z,32.10
2022-09-13T11:35:50.994Z,29.68
2022-09-13T11:38:49.942Z,30.45
2022-09-13T11:41:45.321Z,31.82
2022-09-13T11:44:49.502Z,31.73
2022-09-13T11:47:43.580Z,31.82
2022-09-13T11:50:44.922Z,32.05
2022-09-13T11:53:31.877Z,30.88
2022-09-13T11:56:06.778Z,31.83
2022-09-13T11:58:43.254Z,31.85
2022-09-13T12:01:14.162Z,31.69
2022-09-13T12:04:11.656Z,31.87
2022-09-13T12:06:43.374Z,31.63
2022-09-13T12:09:18.994Z,31.57
2022-09-13T12:12:07.868Z,30.48
2022-09-13T12:14:54.646Z,31.14
2022-09-13T12:17:32.187Z,30.79
2022-09-13T12:20:02.293Z,31.29
2022-09-13T12:22:34.241Z,31.99
2022-09-13T12:25:11.254Z,31.50
2022-09-13T12:27:59.257Z,30.59
2022-09-13T12:30:37.861Z,29.09
2022-09-13T12:33:06.806Z,30.46
2022-09-13T12:36:17.733Z,28.26
2022-09-13T12:39:35.347Z,29.67
2022-09-13T12:42:49.670Z,29.54
2022-09-13T12:45:24.196Z,30.23
2022-09-13T12:48:47.930Z,29.10
2022-09-13T12:51:23.836Z,27.78
2022-09-13T12:54:17.070Z,28.82
2022-09-13T12:56:58.647Z,27.26
2022-09-13T13:00:13.020Z,28.14
2022-09-13T13:02:54.732Z,29.69
2022-09-13T13:05:31.336Z,29.09
2022-09-13T13:08:03.492Z,29.72
2022-09-13T13:10:36.962Z,29.42
2022-09-13T13:13:36.380Z,29.71
2022-09-13T13:16:34.335Z,28.91
2022-09-13T13:19:04.547Z,29.55
2022-09-13T13:21:39.158Z,29.93
2022-09-13T13:24:28.510Z,29.77
2022-09-13T13:26:58.418Z,30.22
2022-09-13T13:29:30.865Z,31.69
2022-09-13T13:31:57.564Z,32.06
2022-09-13T13:34:24.232Z,31.08
2022-09-13T13:37:32.876Z,30.90
2022-09-13T13:40:22.047Z,31.68
2022-09-13T13:42:49.101Z,30.74
2022-09-13T13:45:25.228Z,30.26
2022-09-13T13:48:55.283Z,31.25
2022-09-13T13:51:26.049Z,31.26
2022-09-13T13:54:05.942Z,31.17
2022-09-13T13:56:47.047Z,30.96
2022-09-13T13:59:25.531Z,30.35
2022-09-13T14:01:59.567Z,30.94
2022-09-13T14:05:13.530Z,31.62
2022-09-13T14:08:10.256Z,30.76
2022-09-13T14:10:58.004Z,30.34
2022-09-13T14:13:42.279Z,30.73
2022-09-13T14:16:22.878Z,30.53
2022-09-13T14:19:19.591Z,31.91
2022-09-13T14:21:46.470Z,32.41
2022-09-13T14:24:23.637Z,32.91
2022-09-13T14:26:59.288Z,33.21
2022-09-13T14:29:26.386Z,33.66
2022-09-13T14:32:01.556Z,33.68
2022-09-13T14:34:32.585Z,34.09
2022-09-13T14:37:02.643Z,35.01
2022-09-13T14:39:30.758Z,34.16
2022-09-13T14:42:16.299Z,34.43
2022-09-13T14:44:47.390Z,35.82
2022-09-13T14:47:27.061Z,33.93
2022-09-13T14:50:16.744Z,35.48
2022-09-13T14:52:52.405Z,35.02
2022-09-13T14:55:26.528Z,34.58
2022-09-13T14:58:04.316Z,34.11
2022-09-13T15:00:46.147Z,31.53
2022-09-13T15:03:16.465Z,32.42
2022-09-13T15:05:53.626Z,34.14
2022-09-13T15:08:35.257Z,34.17
2022-09-13T15:11:05.827Z,33.86
2022-09-13T15:13:34.474Z,35.28
2022-09-13T15:16:01.581Z,37.35
2022-09-13T15:18:36.954Z,36.98
2022-09-13T15:21:06.495Z,38.28
2022-09-13T15:23:37.978Z,40.02
2022-09-13T15:26:10.402Z,36.29
2022-09-13T15:28:49.052Z,36.44
2022-09-13T15:31:24.825Z,36.70
2022-09-13T15:34:20.446Z,36.88
2022-09-13T15:36:49.865Z,37.54
2022-09-13T15:39:21.930Z,37.85
2022-09-13T15:42:01.216Z,36.54
2022-09-13T15:44:32.591Z,37.72
2022-09-13T15:47:09.573Z,38.24
2022-09-13T15:49:40.958Z,37.11
2022-09-13T15:52:08.098Z,37.22
2022-09-13T15:54:41.450Z,37.88
2022-09-13T15:57:18.419Z,37.18
2022-09-13T15:59:45.401Z,36.98
2022-09-13T16:02:33.230Z,37.08
2022-09-13T16:05:00.195Z,37.68
2022-09-13T16:07:27.383Z,37.72
2022-09-13T16:09:54.454Z,37.22
2022-09-13T16:12:24.616Z,38.02
2022-09-13T16:14:51.657Z,40.69
2022-09-13T16:17:27.113Z,42.43
2022-09-13T16:19:54.921Z,44.42
2022-09-13T16:22:22.507Z,44.31
2022-09-13T16:24:50.328Z,45.12
2022-09-13T16:27:19.529Z,45.46
2022-09-13T16:29:47.474Z,45.33
2022-09-13T16:32:14.574Z,45.76
2022-09-13T16:34:41.441Z,46.07
2022-09-13T16:37:08.190Z,46.62
2022-09-13T16:39:34.971Z,47.26
2022-09-13T16:42:01.885Z,48.37
2022-09-13T16:44:28.611Z,48.18
2022-09-13T16:46:55.355Z,48.61
2022-09-13T16:49:22.153Z,49.17
2022-09-13T16:51:49.069Z,50.00
2022-09-13T16:54:15.857Z,50.69
2022-09-13T16:56:42.692Z,51.09
2022-09-13T16:59:09.642Z,51.23
2022-09-13T17:01:37.603Z,51.88
2022-09-13T17:04:04.450Z,52.15
2022-09-13T17:06:31.214Z,52.30
2022-09-13T17:09:01.711Z,53.10
2022-09-13T17:11:31.886Z,53.06
2022-09-13T17:14:01.069Z,53.55
2022-09-13T17:16:38.340Z,54.75
2022-09-13T17:19:09.476Z,55.00
2022-09-13T17:21:36.331Z,55.25
2022-09-13T17:24:03.869Z,55.68
2022-09-13T17:26:30.634Z,55.90
2022-09-13T17:28:57.510Z,56.68
2022-09-13T17:31:24.555Z,57.36
2022-09-13T17:33:53.319Z,57.43
2022-09-13T17:36:20.862Z,57.60
2022-09-13T17:38:48.258Z,58.09
2022-09-13T17:41:19.357Z,58.09
2022-09-13T17:43:47.567Z,58.35
2022-09-13T17:46:22.376Z,59.03
2022-09-13T17:48:52.248Z,60.26
2022-09-13T17:51:25.319Z,60.08
2022-09-13T17:54:07.139Z,61.02
2022-09-13T17:56:38.071Z,61.10
2022-09-13T17:59:10.589Z,61.82
2022-09-13T18:01:40.927Z,61.88
2022-09-13T18:04:08.567Z,62.08
2022-09-13T18:06:37.393Z,61.93
2022-09-13T18:09:05.053Z,62.65
2022-09-13T18:11:31.830Z,62.91
2022-09-13T18:13:58.801Z,62.59
2022-09-13T18:16:29.534Z,63.04
2022-09-13T18:18:57.066Z,63.37
2022-09-13T18:21:26.092Z,63.78
2022-09-13T18:23:58.135Z,64.26
2022-09-13T18:26:27.698Z,64.75
2022-09-13T18:29:04.259Z,65.07
2022-09-13T18:31:33.515Z,65.74
2022-09-13T18:34:04.106Z,65.98
2022-09-13T18:36:33.547Z,66.62
2022-09-13T18:39:03.128Z,67.11
2022-09-13T18:41:40.538Z,67.34
2022-09-13T18:44:09.633Z,68.08
2022-09-13T18:46:37.538Z,68.04
2022-09-13T18:49:05.802Z,68.38
2022-09-13T18:51:39.260Z,68.15
2022-09-13T18:54:08.415Z,67.73
2022-09-13T18:56:35.895Z,67.84
2022-09-13T18:59:06.355Z,68.40
2022-09-13T19:01:37.163Z,68.15
2022-09-13T19:04:12.211Z,68.46
2022-09-13T19:06:42.810Z,68.60
2022-09-13T19:09:10.907Z,68.84
2022-09-13T19:11:48.189Z,68.58
2022-09-13T19:14:27.255Z,68.93
2022-09-13T19:16:57.279Z,69.50
2022-09-13T19:19:24.839Z,69.52
2022-09-13T19:21:51.825Z,69.18
2022-09-13T19:24:20.231Z,69.41
2022-09-13T19:26:52.828Z,69.83
2022-09-13T19:29:23.540Z,70.56
2022-09-13T19:31:52.744Z,70.46
2022-09-13T19:34:22.158Z,71.15
2022-09-13T19:36:52.670Z,72.09
2022-09-13T19:39:19.578Z,72.12
2022-09-13T19:41:46.732Z,72.72
2022-09-13T19:44:15.222Z,73.37
2022-09-13T19:46:43.730Z,74.23
2022-09-13T19:49:17.253Z,74.32
2022-09-13T19:51:51.342Z,73.63
2022-09-13T19:54:19.045Z,74.46
2022-09-13T19:56:46.630Z,76.15
2022-09-13T19:59:16.904Z,77.81
2022-09-13T20:01:45.897Z,78.06
2022-09-13T20:04:18.312Z,77.58
2022-09-13T20:06:48.316Z,77.29
2022-09-13T20:09:17.535Z,76.75
2022-09-13T20:11:45.603Z,77.26
2022-09-13T20:14:15.241Z,76.83
2022-09-13T20:16:43.038Z,76.71
2022-09-13T20:19:39.426Z,76.83
2022-09-13T20:22:05.916Z,77.42
2022-09-13T20:24:32.738Z,77.58
2022-09-13T20:26:59.872Z,78.07
2022-09-13T20:29:26.634Z,77.41
2022-09-13T20:31:55.558Z,77.72
2022-09-13T20:34:22.649Z,77.42
2022-09-13T20:36:49.375Z,77.12
2022-09-13T20:39:16.379Z,77.25
2022-09-13T20:41:44.265Z,77.75
2022-09-13T20:44:12.291Z,77.80
2022-09-13T20:46:40.503Z,77.75
2022-09-13T20:49:10.546Z,78.35
2022-09-13T20:51:37.750Z,78.59
2022-09-13T20:54:05.379Z,78.61
2022-09-13T20:56:34.483Z,78.26
2022-09-13T20:59:01.936Z,78.70
2022-09-13T21:01:31.210Z,78.07
2022-09-13T21:03:59.297Z,78.68
2022-09-13T21:06:29.777Z,78.75
2022-09-13T21:08:59.956Z,79.03
2022-09-13T21:11:33.518Z,79.02
2022-09-13T21:14:08.622Z,78.50
2022-09-13T21:16:39.566Z,78.58
2022-09-13T21:19:08.062Z,78.17
2022-09-13T21:21:40.249Z,78.63
2022-09-13T21:24:10.128Z,78.49
2022-09-13T21:26:42.110Z,78.04
2022-09-13T21:29:11.501Z,79.03
2022-09-13T21:31:39.129Z,78.81
2022-09-13T21:34:18.230Z,79.46
2022-09-13T21:36:46.413Z,79.36
2022-09-13T21:39:14.021Z,79.22
2022-09-13T21:41:41.128Z,79.94
2022-09-13T21:44:08.097Z,80.09
2022-09-13T21:46:37.278Z,79.54
2022-09-13T21:49:10.822Z,79.87
2022-09-13T21:51:48.482Z,80.42
2022-09-13T21:54:18.845Z,79.47
2022-09-13T21:56:54.121Z,80.17
2022-09-13T21:59:23.020Z,80.81
2022-09-13T22:01:52.525Z,80.67
2022-09-13T22:04:23.828Z,80.51
2022-09-13T22:06:53.524Z,80.87
2022-09-13T22:09:27.044Z,81.20
2022-09-13T22:11:55.999Z,81.65
2022-09-13T22:14:22.966Z,81.26
2022-09-13T22:16:53.063Z,80.25
2022-09-13T22:19:26.601Z,80.94
2022-09-13T22:21:56.890Z,81.05
2022-09-13T22:24:26.649Z,80.88
2022-09-13T22:26:56.467Z,80.69
2022-09-13T22:29:23.723Z,80.93
2022-09-13T22:31:52.287Z,80.54
2022-09-13T22:34:22.910Z,81.08
2022-09-13T22:36:50.282Z,81.25
2022-09-13T22:39:17.467Z,81.79
2022-09-13T22:41:44.907Z,83.14
2022-09-13T22:44:12.069Z,83.17
2022-09-13T22:46:42.565Z,84.02
2022-09-13T22:49:17.331Z,83.36
2022-09-13T22:51:45.357Z,83.29
2022-09-13T22:54:13.930Z,82.82
2022-09-13T22:56:41.576Z,82.46
2022-09-13T22:59:20.859Z,83.97
2022-09-13T23:01:48.155Z,82.96
2022-09-13T23:04:15.338Z,83.12
2022-09-13T23:06:44.093Z,83.50
2022-09-13T23:09:13.887Z,83.43
2022-09-13T23:11:41.041Z,83.58
2022-09-13T23:14:13.078Z,83.93
2022-09-13T23:16:44.254Z,84.11
2022-09-13T23:19:13.656Z,83.91
2022-09-13T23:21:41.183Z,84.00
2022-09-13T23:24:16.298Z,83.93
2022-09-13T23:26:44.970Z,83.70
2022-09-13T23:29:18.193Z,83.62
2022-09-13T23:31:47.200Z,83.94
2022-09-13T23:34:14.975Z,83.95
2022-09-13T23:36:44.136Z,83.96
2022-09-13T23:39:16.794Z,83.69
2022-09-13T23:41:46.236Z,83.92
2022-09-13T23:44:13.342Z,83.76
2022-09-13T23:46:40.234Z,83.63
2022-09-13T23:49:06.979Z,83.47
2022-09-13T23:51:33.785Z,83.90
2022-09-13T23:54:01.226Z,84.46
2022-09-13T23:56:30.998Z,84.03
2022-09-13T23:58:59.722Z,83.40
